Time;durP1;ratioP1;P1;durP2;ratioP2;P2;SDS_P1;SDS_P2;PMS_P1;PMS_P2;Temp;Humidity;BMP_temperature;BMP_pressure;BME280_temperature;BME280_humidity;BME280_pressure;Samples;Min_cycle;Max_cycle;Signal;HPM_P1;HPM_P2
2023/04/17 00:01:02;;;;;;;39.33;23.15;;;;;;;;;;5050422;28;20115;-69
2023/04/17 00:03:30;;;;;;;41.63;24.08;;;;;;;;;;5047035;28;20037;-68
2023/04/17 00:05:57;;;;;;;38.92;23.23;;;;;;;;;;5034045;28;20111;-69
2023/04/17 00:08:22;;;;;;;44.25;25.83;;;;;;;;;;5047317;28;20037;-68
2023/04/17 00:10:48;;;;;;;42.70;24.58;;;;;;;;;;5023042;28;20037;-69
2023/04/17 00:13:14;;;;;;;46.78;26.48;;;;;;;;;;5043589;28;20037;-68
2023/04/17 00:15:39;;;;;;;26.20;17.52;;;;;;;;;;5030507;28;20043;-69
2023/04/17 00:18:05;;;;;;;46.30;24.77;;;;;;;;;;5048836;28;20041;-68
2023/04/17 00:20:30;;;;;;;38.60;23.20;;;;;;;;;;5044740;28;20113;-68
2023/04/17 00:22:56;;;;;;;35.38;20.80;;;;;;;;;;5044685;28;20079;-69
2023/04/17 00:25:22;;;;;;;35.60;21.13;;;;;;;;;;5046682;28;20083;-68
2023/04/17 00:27:48;;;;;;;41.53;23.42;;;;;;;;;;5048303;28;20040;-68
2023/04/17 00:30:13;;;;;;;37.55;22.63;;;;;;;;;;5046280;28;20065;-69
2023/04/17 00:32:39;;;;;;;41.05;24.05;;;;;;;;;;5034487;28;20447;-68
2023/04/17 00:35:05;;;;;;;42.00;23.85;;;;;;;;;;5051437;28;20051;-68
2023/04/17 00:37:31;;;;;;;45.28;25.23;;;;;;;;;;5031507;28;20061;-68
2023/04/17 00:39:56;;;;;;;43.40;24.42;;;;;;;;;;5031972;28;20037;-68
2023/04/17 00:42:22;;;;;;;42.00;22.70;;;;;;;;;;5052336;28;20060;-68
2023/04/17 00:44:48;;;;;;;40.55;24.30;;;;;;;;;;5057033;28;20084;-68
2023/04/17 00:47:14;;;;;;;43.75;24.15;;;;;;;;;;5028341;28;20067;-68
2023/04/17 00:49:39;;;;;;;45.40;23.48;;;;;;;;;;5051542;28;20103;-68
2023/04/17 00:52:05;;;;;;;45.75;25.05;;;;;;;;;;5031860;28;20040;-70
2023/04/17 00:54:32;;;;;;;42.63;22.92;;;;;;;;;;5049894;28;20516;-68
2023/04/17 00:56:58;;;;;;;43.35;23.70;;;;;;;;;;5051872;28;20047;-68
2023/04/17 00:59:26;;;;;;;43.90;23.92;;;;;;;;;;5051969;28;20043;-68
2023/04/17 01:01:52;;;;;;;47.55;23.30;;;;;;;;;;5050653;28;20120;-68
2023/04/17 01:04:18;;;;;;;40.92;23.73;;;;;;;;;;5029229;28;20155;-68
2023/04/17 01:06:43;;;;;;;44.13;23.60;;;;;;;;;;5032495;28;20036;-68
2023/04/17 01:09:10;;;;;;;40.92;22.48;;;;;;;;;;5055704;28;20045;-68
2023/04/17 01:11:35;;;;;;;40.83;23.00;;;;;;;;;;5032441;28;20036;-68
2023/04/17 01:14:01;;;;;;;41.55;23.40;;;;;;;;;;5050205;28;20033;-68
2023/04/17 01:16:29;;;;;;;38.10;22.80;;;;;;;;;;5047800;28;20043;-68
2023/04/17 01:18:55;;;;;;;45.65;22.65;;;;;;;;;;5033807;28;20035;-68
2023/04/17 01:21:21;;;;;;;46.88;23.70;;;;;;;;;;5049308;28;20104;-68
2023/04/17 01:23:51;;;;;;;43.92;23.98;;;;;;;;;;5033807;28;20025;-68
2023/04/17 01:26:22;;;;;;;43.38;23.60;;;;;;;;;;5031758;28;20043;-68
2023/04/17 01:28:56;;;;;;;46.40;24.58;;;;;;;;;;5056750;28;20108;-68
2023/04/17 01:31:22;;;;;;;44.38;22.88;;;;;;;;;;5055401;28;20029;-68
2023/04/17 01:33:49;;;;;;;42.05;23.60;;;;;;;;;;5047621;28;20129;-68
2023/04/17 01:36:15;;;;;;;47.30;24.35;;;;;;;;;;5032159;28;20029;-68
2023/04/17 01:38:41;;;;;;;41.97;22.98;;;;;;;;;;5011858;28;20478;-68
2023/04/17 01:41:10;;;;;;;46.00;23.90;;;;;;;;;;5052552;28;20064;-68
2023/04/17 01:43:38;;;;;;;48.28;22.88;;;;;;;;;;5029593;28;20037;-68
2023/04/17 01:46:03;;;;;;;48.00;24.35;;;;;;;;;;5023755;28;20068;-69
2023/04/17 01:48:29;;;;;;;47.63;25.45;;;;;;;;;;5030404;28;20072;-68
2023/04/17 01:50:56;;;;;;;48.17;24.15;;;;;;;;;;5030544;28;20079;-68
2023/04/17 01:53:21;;;;;;;41.00;22.55;;;;;;;;;;5032140;28;20064;-68
2023/04/17 01:55:47;;;;;;;53.00;27.02;;;;;;;;;;5045630;28;20518;-68
2023/04/17 01:58:12;;;;;;;50.38;25.38;;;;;;;;;;5053377;28;20127;-68
2023/04/17 02:00:38;;;;;;;53.38;25.50;;;;;;;;;;5026902;28;20079;-68
2023/04/17 02:03:03;;;;;;;45.97;24.40;;;;;;;;;;5030331;28;20037;-69
2023/04/17 02:05:29;;;;;;;46.67;24.52;;;;;;;;;;5047085;28;20041;-68
2023/04/17 02:07:55;;;;;;;41.75;21.80;;;;;;;;;;5015162;28;20036;-68
2023/04/17 02:10:20;;;;;;;48.00;24.35;;;;;;;;;;5047274;28;20531;-68
2023/04/17 02:12:46;;;;;;;45.65;22.67;;;;;;;;;;5051194;28;20036;-68
2023/04/17 02:15:11;;;;;;;42.13;22.98;;;;;;;;;;5032068;28;20155;-68
2023/04/17 02:17:37;;;;;;;38.20;21.63;;;;;;;;;;5035947;28;20029;-68
2023/04/17 02:20:05;;;;;;;41.63;23.20;;;;;;;;;;5028046;28;20079;-68
2023/04/17 02:22:31;;;;;;;41.90;22.63;;;;;;;;;;5030180;28;20029;-68
2023/04/17 02:24:57;;;;;;;41.33;22.70;;;;;;;;;;5051008;28;20036;-68
2023/04/17 02:27:25;;;;;;;41.28;22.85;;;;;;;;;;5046903;28;20029;-67
2023/04/17 02:29:50;;;;;;;47.40;25.13;;;;;;;;;;5047429;28;20028;-68
2023/04/17 02:32:17;;;;;;;55.53;27.23;;;;;;;;;;5030026;28;20051;-68
2023/04/17 02:34:42;;;;;;;48.70;25.45;;;;;;;;;;5031364;28;20033;-68
2023/04/17 02:37:08;;;;;;;55.42;25.73;;;;;;;;;;5046059;28;20043;-68
2023/04/17 02:39:35;;;;;;;56.60;27.42;;;;;;;;;;5029927;28;20033;-68
2023/04/17 02:42:01;;;;;;;55.15;26.52;;;;;;;;;;5017052;28;20038;-68
2023/04/17 02:44:27;;;;;;;61.88;30.45;;;;;;;;;;5030487;28;20037;-67
2023/04/17 02:46:53;;;;;;;58.88;28.50;;;;;;;;;;5031320;28;20423;-68
2023/04/17 02:49:20;;;;;;;63.55;30.35;;;;;;;;;;5025722;28;20039;-68
2023/04/17 02:51:46;;;;;;;61.05;27.92;;;;;;;;;;5046033;28;20119;-68
2023/04/17 02:54:12;;;;;;;64.30;30.08;;;;;;;;;;5025378;28;20432;-67
2023/04/17 02:56:37;;;;;;;54.05;26.00;;;;;;;;;;5025365;28;20489;-67
2023/04/17 02:59:03;;;;;;;58.88;28.58;;;;;;;;;;5055417;28;20489;-67
2023/04/17 03:01:29;;;;;;;67.43;30.02;;;;;;;;;;5027426;28;20051;-68
2023/04/17 03:03:55;;;;;;;55.17;27.83;;;;;;;;;;5045167;28;20037;-68
2023/04/17 03:06:22;;;;;;;54.53;29.05;;;;;;;;;;5028414;28;20043;-68
2023/04/17 03:08:49;;;;;;;50.75;27.15;;;;;;;;;;5026664;28;20056;-67
2023/04/17 03:11:15;;;;;;;55.63;26.50;;;;;;;;;;5019015;28;20044;-68
2023/04/17 03:13:42;;;;;;;46.15;25.33;;;;;;;;;;5046922;28;20039;-67
2023/04/17 03:16:08;;;;;;;51.40;25.27;;;;;;;;;;5045075;28;20115;-68
2023/04/17 03:18:39;;;;;;;45.95;25.30;;;;;;;;;;5027901;28;20473;-68
2023/04/17 03:21:05;;;;;;;47.17;25.98;;;;;;;;;;5047672;28;20131;-68
2023/04/17 03:23:31;;;;;;;47.13;24.20;;;;;;;;;;5045482;28;20033;-68
2023/04/17 03:25:57;;;;;;;53.38;26.23;;;;;;;;;;5031258;28;20541;-69
2023/04/17 03:28:23;;;;;;;44.63;24.25;;;;;;;;;;5028072;28;20063;-68
2023/04/17 03:30:50;;;;;;;47.25;26.00;;;;;;;;;;5027666;28;20071;-67
2023/04/17 03:33:16;;;;;;;49.42;27.15;;;;;;;;;;5057248;28;20040;-68
2023/04/17 03:35:42;;;;;;;49.42;25.95;;;;;;;;;;5044350;28;20040;-67
2023/04/17 03:38:08;;;;;;;50.40;24.92;;;;;;;;;;5026952;28;20044;-68
2023/04/17 03:40:34;;;;;;;49.75;27.70;;;;;;;;;;5028180;28;20056;-68
2023/04/17 03:43:00;;;;;;;51.00;27.27;;;;;;;;;;5051719;28;20506;-68
2023/04/17 03:45:26;;;;;;;49.03;26.08;;;;;;;;;;5044420;28;20606;-67
2023/04/17 03:47:52;;;;;;;47.83;26.20;;;;;;;;;;5027688;28;20040;-68
2023/04/17 03:50:17;;;;;;;44.22;24.25;;;;;;;;;;5049905;28;20047;-67
2023/04/17 03:52:49;;;;;;;45.33;24.30;;;;;;;;;;5028121;28;20041;-68
2023/04/17 03:55:16;;;;;;;48.47;24.58;;;;;;;;;;5041256;28;20041;-68
2023/04/17 03:57:43;;;;;;;51.72;26.30;;;;;;;;;;5045127;28;20043;-68
2023/04/17 04:00:10;;;;;;;47.47;25.45;;;;;;;;;;5030908;28;20041;-68
2023/04/17 04:02:47;;;;;;;48.65;25.73;;;;;;;;;;5026821;28;20044;-68
2023/04/17 04:05:17;;;;;;;45.22;24.77;;;;;;;;;;5043047;28;20503;-68
2023/04/17 04:07:43;;;;;;;58.72;29.58;;;;;;;;;;5046804;28;20033;-67
2023/04/17 04:10:11;;;;;;;55.70;28.20;;;;;;;;;;5028338;28;20043;-68
2023/04/17 04:12:37;;;;;;;46.90;26.83;;;;;;;;;;5022793;28;20048;-68
2023/04/17 04:15:03;;;;;;;48.70;26.90;;;;;;;;;;5045035;28;20036;-68
2023/04/17 04:17:31;;;;;;;47.27;26.47;;;;;;;;;;5026725;28;20130;-68
2023/04/17 04:19:57;;;;;;;54.78;28.45;;;;;;;;;;5027792;28;20094;-68
2023/04/17 04:22:24;;;;;;;45.03;24.45;;;;;;;;;;5025409;28;20064;-67
2023/04/17 04:24:52;;;;;;;45.97;24.48;;;;;;;;;;5029866;28;20040;-67
2023/04/17 04:27:22;;;;;;;50.17;25.83;;;;;;;;;;5026457;28;20128;-68
2023/04/17 04:29:49;;;;;;;50.85;25.77;;;;;;;;;;5027581;28;20031;-68
2023/04/17 04:32:18;;;;;;;59.22;28.90;;;;;;;;;;5026664;28;20033;-67
2023/04/17 04:34:45;;;;;;;53.38;27.60;;;;;;;;;;5026898;28;20032;-67
2023/04/17 04:37:14;;;;;;;54.83;30.23;;;;;;;;;;5029356;28;20039;-67
2023/04/17 04:39:42;;;;;;;50.85;28.95;;;;;;;;;;5041269;28;20139;-67
2023/04/17 04:42:12;;;;;;;57.53;29.05;;;;;;;;;;5019838;28;20044;-67
2023/04/17 04:45:13;;;;;;;61.90;29.48;;;;;;;;;;5025104;28;20213;-67
2023/04/17 04:47:41;;;;;;;57.85;27.83;;;;;;;;;;5024733;28;20049;-67
2023/04/17 04:50:08;;;;;;;54.05;28.50;;;;;;;;;;5045637;28;20033;-67
2023/04/17 04:52:35;;;;;;;53.38;27.05;;;;;;;;;;5025243;28;20045;-67
2023/04/17 04:55:07;;;;;;;59.50;28.17;;;;;;;;;;5047370;28;20373;-67
2023/04/17 04:57:35;;;;;;;58.80;28.40;;;;;;;;;;5013145;28;20045;-67
2023/04/17 05:00:05;;;;;;;54.20;28.73;;;;;;;;;;5028314;28;20037;-67
2023/04/17 05:02:36;;;;;;;57.03;27.13;;;;;;;;;;5026598;28;20412;-67
2023/04/17 05:05:03;;;;;;;60.15;29.20;;;;;;;;;;5027923;28;20037;-67
2023/04/17 05:07:31;;;;;;;52.00;28.33;;;;;;;;;;5030432;28;20032;-67
2023/04/17 05:09:57;;;;;;;57.90;27.83;;;;;;;;;;5023818;28;20535;-68
2023/04/17 05:12:23;;;;;;;53.15;28.38;;;;;;;;;;5027671;28;20067;-67
2023/04/17 05:14:49;;;;;;;50.15;25.67;;;;;;;;;;5046767;28;20087;-67
2023/04/17 05:17:17;;;;;;;50.95;25.75;;;;;;;;;;5035241;28;20411;-67
2023/04/17 05:19:43;;;;;;;41.45;22.92;;;;;;;;;;5030962;28;20681;-67
2023/04/17 05:22:09;;;;;;;47.65;23.95;;;;;;;;;;5048553;28;20112;-67
2023/04/17 05:24:44;;;;;;;48.15;24.45;;;;;;;;;;5029378;28;20082;-67
2023/04/17 05:27:09;;;;;;;47.35;23.90;;;;;;;;;;5031059;28;20404;-67
2023/04/17 05:29:36;;;;;;;46.28;25.35;;;;;;;;;;5048746;28;20028;-67
2023/04/17 05:32:02;;;;;;;52.42;25.05;;;;;;;;;;5033749;28;20037;-67
2023/04/17 05:34:51;;;;;;;45.50;25.40;;;;;;;;;;5007335;28;20432;-67
2023/04/17 05:37:20;;;;;;;51.13;27.42;;;;;;;;;;5032222;28;20049;-67
2023/04/17 05:39:46;;;;;;;48.72;23.25;;;;;;;;;;5033505;28;20039;-67
2023/04/17 05:42:11;;;;;;;46.38;23.02;;;;;;;;;;5028549;28;20090;-67
2023/04/17 05:44:38;;;;;;;43.00;22.98;;;;;;;;;;5049188;28;20136;-67
2023/04/17 05:47:03;;;;;;;44.97;25.23;;;;;;;;;;5033167;28;20055;-67
2023/04/17 05:49:29;;;;;;;43.17;22.40;;;;;;;;;;5030378;28;20713;-67
2023/04/17 05:51:54;;;;;;;43.17;22.90;;;;;;;;;;5027654;28;20110;-67
2023/04/17 05:54:20;;;;;;;42.00;22.25;;;;;;;;;;5029487;28;20464;-67
2023/04/17 05:56:48;;;;;;;43.15;22.15;;;;;;;;;;5028934;28;20040;-67
2023/04/17 05:59:15;;;;;;;49.08;24.25;;;;;;;;;;5034833;28;20048;-67
2023/04/17 06:01:42;;;;;;;46.78;24.50;;;;;;;;;;5029539;28;20032;-67
2023/04/17 06:04:08;;;;;;;44.65;22.55;;;;;;;;;;5029727;28;20037;-67
2023/04/17 06:06:33;;;;;;;47.38;22.15;;;;;;;;;;5029561;28;20052;-67
2023/04/17 06:08:59;;;;;;;50.10;24.65;;;;;;;;;;5030153;28;20111;-67
2023/04/17 06:11:26;;;;;;;45.17;22.77;;;;;;;;;;5045206;28;20033;-67
2023/04/17 06:13:52;;;;;;;44.30;21.90;;;;;;;;;;5026940;28;20037;-67
2023/04/17 06:16:18;;;;;;;41.28;22.05;;;;;;;;;;5031500;28;20048;-67
2023/04/17 06:18:46;;;;;;;41.92;21.27;;;;;;;;;;5026868;28;20036;-67
2023/04/17 06:21:11;;;;;;;36.33;20.20;;;;;;;;;;5029493;28;20043;-67
2023/04/17 06:23:37;;;;;;;50.55;23.98;;;;;;;;;;5050366;28;20032;-67
2023/04/17 06:26:02;;;;;;;45.85;22.65;;;;;;;;;;5051946;28;20534;-68
2023/04/17 06:28:28;;;;;;;42.60;22.08;;;;;;;;;;5030571;28;20064;-67
2023/04/17 06:30:55;;;;;;;39.10;21.50;;;;;;;;;;5035066;28;20378;-68
2023/04/17 06:33:22;;;;;;;37.95;21.10;;;;;;;;;;5027959;28;20041;-67
2023/04/17 06:35:49;;;;;;;44.05;22.80;;;;;;;;;;5031760;28;20056;-67
2023/04/17 06:38:23;;;;;;;43.40;21.77;;;;;;;;;;5033279;28;20061;-67
2023/04/17 06:40:48;;;;;;;42.85;21.67;;;;;;;;;;5029750;28;20122;-67
2023/04/17 06:43:17;;;;;;;50.65;25.00;;;;;;;;;;5047371;28;20188;-67
2023/04/17 06:45:42;;;;;;;52.33;23.75;;;;;;;;;;5030020;28;20087;-66
2023/04/17 06:48:08;;;;;;;47.78;25.05;;;;;;;;;;5013575;28;20107;-67
2023/04/17 06:50:34;;;;;;;52.97;23.90;;;;;;;;;;5030834;28;20032;-66
2023/04/17 06:52:59;;;;;;;49.22;24.27;;;;;;;;;;5031802;28;20391;-67
2023/04/17 06:55:25;;;;;;;53.80;26.08;;;;;;;;;;5045996;28;20143;-66
2023/04/17 06:57:51;;;;;;;57.72;25.73;;;;;;;;;;5044030;28;20037;-66
2023/04/17 07:00:17;;;;;;;47.20;23.42;;;;;;;;;;5045740;28;20048;-67
2023/04/17 07:02:43;;;;;;;53.22;24.52;;;;;;;;;;5045368;28;20451;-67
2023/04/17 07:05:09;;;;;;;52.25;25.05;;;;;;;;;;5044299;28;20040;-67
2023/04/17 07:07:35;;;;;;;55.83;26.60;;;;;;;;;;5044316;28;20029;-67
2023/04/17 07:10:02;;;;;;;47.65;24.25;;;;;;;;;;5047229;28;20036;-67
2023/04/17 07:12:28;;;;;;;47.15;23.50;;;;;;;;;;5046533;28;20033;-66
2023/04/17 07:14:53;;;;;;;52.50;23.27;;;;;;;;;;5026543;28;20556;-67
2023/04/17 07:17:19;;;;;;;46.95;23.13;;;;;;;;;;5046345;28;20037;-67
2023/04/17 07:19:44;;;;;;;47.63;22.92;;;;;;;;;;5048389;28;20396;-67
2023/04/17 07:22:10;;;;;;;44.17;23.52;;;;;;;;;;5047088;28;20036;-67
2023/04/17 07:24:35;;;;;;;45.13;21.42;;;;;;;;;;5045479;28;20040;-66
2023/04/17 07:27:02;;;;;;;47.47;22.27;;;;;;;;;;5046415;28;20121;-67
2023/04/17 07:29:28;;;;;;;42.88;21.00;;;;;;;;;;5046952;28;20056;-67
2023/04/17 07:31:54;;;;;;;45.17;22.20;;;;;;;;;;5046664;28;20056;-67
2023/04/17 07:34:20;;;;;;;43.72;22.27;;;;;;;;;;5048693;28;20066;-67
2023/04/17 07:36:48;;;;;;;45.08;22.33;;;;;;;;;;5045777;28;20034;-67
2023/04/17 07:39:14;;;;;;;46.40;21.35;;;;;;;;;;5043020;28;20051;-67
2023/04/17 07:41:39;;;;;;;38.47;21.15;;;;;;;;;;5048462;28;20033;-67
2023/04/17 07:44:05;;;;;;;39.40;19.67;;;;;;;;;;5045056;28;20021;-67
2023/04/17 07:46:31;;;;;;;34.20;18.55;;;;;;;;;;5041668;28;20091;-67
2023/04/17 07:48:57;;;;;;;39.35;19.75;;;;;;;;;;5044453;28;20033;-67
2023/04/17 07:51:23;;;;;;;35.78;19.83;;;;;;;;;;5045120;28;20166;-67
2023/04/17 07:53:49;;;;;;;35.03;20.75;;;;;;;;;;5043926;28;20559;-67
2023/04/17 07:56:16;;;;;;;35.13;19.88;;;;;;;;;;5038644;28;20037;-67
2023/04/17 07:58:43;;;;;;;35.08;23.13;;;;;;;;;;5048990;28;20437;-67
2023/04/17 08:01:09;;;;;;;34.03;22.85;;;;;;;;;;5043227;28;20424;-67
2023/04/17 08:03:35;;;;;;;34.15;20.30;;;;;;;;;;5046490;28;20037;-67
2023/04/17 08:06:00;;;;;;;29.50;18.25;;;;;;;;;;5048354;28;20058;-67
2023/04/17 08:08:26;;;;;;;28.92;17.50;;;;;;;;;;5044485;28;20044;-67
2023/04/17 08:10:52;;;;;;;31.30;19.30;;;;;;;;;;5047541;28;20055;-67
2023/04/17 08:13:17;;;;;;;26.42;18.25;;;;;;;;;;5046731;28;20068;-67
2023/04/17 08:15:44;;;;;;;31.48;18.33;;;;;;;;;;5047648;28;20084;-67
2023/04/17 08:18:10;;;;;;;28.63;17.70;;;;;;;;;;5044501;28;20485;-67
2023/04/17 08:20:36;;;;;;;25.17;17.55;;;;;;;;;;5045228;28;20037;-67
2023/04/17 08:23:03;;;;;;;24.98;17.13;;;;;;;;;;5028707;28;20072;-67
2023/04/17 08:25:29;;;;;;;24.85;19.25;;;;;;;;;;5042047;28;20315;-67
2023/04/17 08:27:55;;;;;;;20.30;15.57;;;;;;;;;;5047093;28;20451;-67
2023/04/17 08:30:20;;;;;;;24.65;17.35;;;;;;;;;;5047882;28;20187;-67
2023/04/17 08:32:47;;;;;;;25.08;17.15;;;;;;;;;;5047150;28;20035;-68
2023/04/17 08:35:14;;;;;;;24.77;17.33;;;;;;;;;;5044066;28;20029;-68
2023/04/17 08:37:41;;;;;;;26.55;16.77;;;;;;;;;;5047822;28;20120;-67
2023/04/17 08:40:11;;;;;;;26.33;17.00;;;;;;;;;;5049029;28;20040;-67
2023/04/17 08:42:41;;;;;;;27.60;16.92;;;;;;;;;;5040562;28;20031;-67
2023/04/17 08:45:11;;;;;;;31.10;18.85;;;;;;;;;;5045044;28;20408;-67
2023/04/17 08:47:38;;;;;;;29.65;18.48;;;;;;;;;;5044372;28;20112;-67
2023/04/17 08:50:08;;;;;;;26.25;15.55;;;;;;;;;;5044059;28;20037;-67
2023/04/17 08:52:41;;;;;;;23.55;16.75;;;;;;;;;;5046452;28;20032;-67
2023/04/17 08:55:10;;;;;;;25.85;17.20;;;;;;;;;;5051232;28;20396;-67
2023/04/17 08:57:52;;;;;;;27.13;17.52;;;;;;;;;;5047194;28;20071;-68
2023/04/17 09:00:26;;;;;;;22.00;15.07;;;;;;;;;;5047383;28;20052;-67
2023/04/17 09:02:54;;;;;;;25.83;15.93;;;;;;;;;;5047435;28;20051;-67
2023/04/17 09:05:21;;;;;;;21.88;16.67;;;;;;;;;;5047229;28;20033;-67
2023/04/17 09:08:07;;;;;;;22.33;15.55;;;;;;;;;;5051926;28;20043;-66
2023/04/17 09:10:35;;;;;;;18.60;14.68;;;;;;;;;;5050172;28;20043;-67
2023/04/17 09:13:01;;;;;;;39.13;28.85;;;;;;;;;;5048435;28;20111;-66
2023/04/17 09:15:26;;;;;;;18.77;14.73;;;;;;;;;;5050624;28;20119;-67
2023/04/17 09:17:52;;;;;;;17.42;14.23;;;;;;;;;;5051801;28;20112;-67
2023/04/17 09:20:18;;;;;;;14.90;12.30;;;;;;;;;;5049310;28;20071;-66
2023/04/17 09:22:43;;;;;;;14.05;12.60;;;;;;;;;;5050888;28;20024;-66
2023/04/17 09:25:16;;;;;;;15.38;13.73;;;;;;;;;;5049862;28;20107;-67
2023/04/17 09:27:42;;;;;;;14.23;12.65;;;;;;;;;;5052288;28;20036;-67
2023/04/17 09:30:08;;;;;;;15.02;13.15;;;;;;;;;;5048168;28;20029;-67
2023/04/17 09:32:33;;;;;;;19.38;12.43;;;;;;;;;;5049232;28;20138;-67
2023/04/17 09:35:01;;;;;;;17.50;14.18;;;;;;;;;;5049976;28;20033;-68
2023/04/17 09:37:48;;;;;;;14.35;12.77;;;;;;;;;;5049489;28;20110;-67
2023/04/17 09:40:14;;;;;;;14.65;12.88;;;;;;;;;;5047656;28;20125;-67
2023/04/17 09:42:52;;;;;;;13.95;12.50;;;;;;;;;;5050528;28;20107;-67
2023/04/17 09:45:19;;;;;;;12.95;11.60;;;;;;;;;;5048889;28;20711;-67
2023/04/17 09:47:47;;;;;;;12.65;11.45;;;;;;;;;;5053252;28;20044;-67
2023/04/17 09:50:17;;;;;;;12.20;10.85;;;;;;;;;;5044666;28;20400;-66
2023/04/17 09:52:43;;;;;;;;;;;;;;;;;;5048390;28;20163;-67
2023/04/17 09:55:10;;;;;;;12.35;11.10;;;;;;;;;;5047892;28;19920;-67
2023/04/17 09:57:37;;;;;;;12.70;11.40;;;;;;;;;;5049018;28;20100;-67
2023/04/17 10:00:05;;;;;;;12.95;11.65;;;;;;;;;;5048665;28;20060;-68
2023/04/17 10:02:32;;;;;;;16.07;13.00;;;;;;;;;;5051182;28;20072;-67
2023/04/17 10:04:58;;;;;;;16.70;14.02;;;;;;;;;;5046962;28;20117;-67
2023/04/17 10:07:23;;;;;;;13.48;11.55;;;;;;;;;;5049464;28;20033;-67
2023/04/17 10:09:49;;;;;;;18.13;14.50;;;;;;;;;;5047095;28;20029;-67
2023/04/17 10:12:17;;;;;;;15.93;13.20;;;;;;;;;;5047853;28;20029;-67
2023/04/17 10:14:47;;;;;;;16.67;14.15;;;;;;;;;;5043540;28;20432;-67
2023/04/17 10:17:30;;;;;;;12.43;11.13;;;;;;;;;;5045291;28;20029;-67
2023/04/17 10:20:22;;;;;;;13.80;12.05;;;;;;;;;;5046040;28;20033;-67
2023/04/17 10:22:53;;;;;;;14.80;11.65;;;;;;;;;;5047033;28;20044;-67
2023/04/17 10:25:28;;;;;;;13.13;11.30;;;;;;;;;;5043347;28;20063;-66
2023/04/17 10:28:03;;;;;;;12.43;11.13;;;;;;;;;;5043939;28;20035;-67
2023/04/17 10:30:50;;;;;;;12.13;10.88;;;;;;;;;;5045481;28;20115;-67
2023/04/17 10:33:18;;;;;;;12.20;11.00;;;;;;;;;;5042641;28;20040;-67
2023/04/17 10:35:44;;;;;;;12.32;11.13;;;;;;;;;;5043545;28;20485;-67
2023/04/17 10:38:10;;;;;;;12.77;11.50;;;;;;;;;;5026817;28;20484;-67
2023/04/17 10:40:37;;;;;;;13.27;11.90;;;;;;;;;;5047266;28;20802;-67
2023/04/17 10:43:13;;;;;;;14.32;12.93;;;;;;;;;;5042288;28;20403;-67
2023/04/17 10:46:02;;;;;;;14.02;12.52;;;;;;;;;;5041664;28;20033;-67
2023/04/17 10:48:32;;;;;;;14.65;12.90;;;;;;;;;;5043775;28;20670;-67
2023/04/17 10:50:59;;;;;;;15.20;13.48;;;;;;;;;;5043552;28;20025;-67
2023/04/17 10:53:45;;;;;;;15.02;13.52;;;;;;;;;;5030496;28;20033;-67
2023/04/17 10:56:17;;;;;;;15.25;13.23;;;;;;;;;;5052387;28;20037;-67
2023/04/17 10:58:59;;;;;;;15.32;12.77;;;;;;;;;;5045207;28;20029;-67
2023/04/17 11:01:28;;;;;;;13.90;11.98;;;;;;;;;;5049602;28;20052;-67
2023/04/17 11:03:53;;;;;;;14.40;12.90;;;;;;;;;;5051007;28;20032;-67
2023/04/17 11:06:21;;;;;;;13.23;11.85;;;;;;;;;;5044741;28;20040;-67
2023/04/17 11:08:47;;;;;;;13.20;11.43;;;;;;;;;;5050529;28;20111;-68
2023/04/17 11:11:16;;;;;;;14.68;13.18;;;;;;;;;;5053555;28;20025;-65
2023/04/17 11:13:46;;;;;;;14.43;13.02;;;;;;;;;;5047815;28;20037;-67
2023/04/17 11:16:12;;;;;;;13.98;12.57;;;;;;;;;;5047024;28;20032;-66
2023/04/17 11:18:38;;;;;;;14.20;12.70;;;;;;;;;;5049641;28;20040;-66
2023/04/17 11:21:04;;;;;;;13.07;11.88;;;;;;;;;;5048470;28;20029;-68
2023/04/17 11:23:32;;;;;;;14.05;12.55;;;;;;;;;;5042862;28;20044;-68
2023/04/17 11:25:59;;;;;;;15.70;13.38;;;;;;;;;;5042817;28;20464;-67
2023/04/17 11:28:24;;;;;;;12.65;11.35;;;;;;;;;;5045344;28;20083;-67
2023/04/17 11:30:51;;;;;;;15.45;12.50;;;;;;;;;;5045840;28;20057;-67
2023/04/17 11:33:16;;;;;;;13.18;11.85;;;;;;;;;;5045208;28;20045;-67
2023/04/17 11:35:42;;;;;;;14.65;11.90;;;;;;;;;;5048917;28;20826;-67
2023/04/17 11:38:22;;;;;;;12.60;11.30;;;;;;;;;;5046431;28;20032;-68
2023/04/17 11:40:53;;;;;;;10.10;9.20;;;;;;;;;;5046744;28;20116;-67
2023/04/17 11:43:20;;;;;;;11.52;10.63;;;;;;;;;;5048186;28;20517;-67
2023/04/17 11:45:48;;;;;;;10.88;9.98;;;;;;;;;;5046281;28;20083;-67
2023/04/17 11:48:15;;;;;;;10.63;9.52;;;;;;;;;;5047223;28;20072;-68
2023/04/17 11:50:42;;;;;;;10.30;9.30;;;;;;;;;;5050897;28;20476;-67
2023/04/17 11:53:11;;;;;;;10.07;9.27;;;;;;;;;;5046844;28;20458;-67
2023/04/17 11:55:37;;;;;;;9.98;9.02;;;;;;;;;;5045228;28;20528;-68
2023/04/17 11:58:05;;;;;;;9.18;8.48;;;;;;;;;;5046243;28;20064;-67
2023/04/17 12:00:31;;;;;;;9.98;9.18;;;;;;;;;;5048812;28;20040;-67
2023/04/17 12:03:01;;;;;;;9.50;8.80;;;;;;;;;;5049538;28;20033;-67
2023/04/17 12:05:29;;;;;;;9.40;8.60;;;;;;;;;;5049360;28;20036;-67
2023/04/17 12:08:13;;;;;;;10.10;9.40;;;;;;;;;;5041811;28;20389;-68
2023/04/17 12:10:40;;;;;;;10.43;9.60;;;;;;;;;;5043337;28;20247;-68
2023/04/17 12:13:07;;;;;;;9.50;8.80;;;;;;;;;;5030043;28;20045;-67
2023/04/17 12:15:34;;;;;;;11.50;10.38;;;;;;;;;;5040520;28;20103;-67
2023/04/17 12:18:04;;;;;;;9.32;8.52;;;;;;;;;;5045613;28;20059;-67
2023/04/17 12:20:31;;;;;;;7.85;7.20;;;;;;;;;;5045209;28;20040;-67
2023/04/17 12:22:57;;;;;;;9.15;8.25;;;;;;;;;;5045151;28;20041;-67
2023/04/17 12:25:22;;;;;;;8.05;7.35;;;;;;;;;;5048119;28;20119;-66
2023/04/17 12:27:48;;;;;;;10.30;7.10;;;;;;;;;;5047316;28;20043;-67
2023/04/17 12:30:14;;;;;;;9.95;8.13;;;;;;;;;;5045513;28;20041;-66
2023/04/17 12:32:41;;;;;;;9.38;8.38;;;;;;;;;;5036997;28;20041;-66
2023/04/17 12:35:07;;;;;;;14.13;9.68;;;;;;;;;;5035063;28;20385;-66
2023/04/17 12:37:33;;;;;;;10.73;9.63;;;;;;;;;;5039414;28;20127;-66
2023/04/17 12:39:58;;;;;;;10.95;9.70;;;;;;;;;;5037003;28;20029;-67
2023/04/17 12:42:24;;;;;;;19.35;15.25;;;;;;;;;;5040996;28;20049;-66
2023/04/17 12:44:50;;;;;;;14.40;10.77;;;;;;;;;;5044171;28;20091;-67
2023/04/17 12:47:15;;;;;;;12.73;11.27;;;;;;;;;;5044240;28;20504;-67
2023/04/17 12:49:41;;;;;;;14.07;12.07;;;;;;;;;;5044348;28;20163;-67
2023/04/17 12:52:07;;;;;;;17.80;14.77;;;;;;;;;;5042187;28;20060;-66
2023/04/17 12:54:32;;;;;;;18.80;16.33;;;;;;;;;;5045171;28;20037;-67
2023/04/17 12:56:58;;;;;;;11.63;10.40;;;;;;;;;;5045050;28;20033;-67
2023/04/17 12:59:23;;;;;;;14.77;11.38;;;;;;;;;;5043835;28;20120;-67
2023/04/17 13:01:49;;;;;;;17.33;13.25;;;;;;;;;;5047562;28;20485;-67
2023/04/17 13:04:15;;;;;;;21.30;17.35;;;;;;;;;;5045764;28;20075;-67
2023/04/17 13:06:40;;;;;;;15.45;11.52;;;;;;;;;;5026814;28;20036;-67
2023/04/17 13:09:06;;;;;;;13.50;11.60;;;;;;;;;;5046220;28;20251;-67
2023/04/17 13:11:31;;;;;;;12.43;10.82;;;;;;;;;;5044104;28;20068;-67
2023/04/17 13:13:57;;;;;;;12.18;10.98;;;;;;;;;;5041650;28;20094;-67
2023/04/17 13:16:22;;;;;;;13.18;10.60;;;;;;;;;;5047605;28;20041;-66
2023/04/17 13:18:48;;;;;;;11.55;10.43;;;;;;;;;;5045255;28;20059;-67
2023/04/17 13:21:14;;;;;;;11.75;10.55;;;;;;;;;;5043238;28;20443;-67
2023/04/17 13:23:39;;;;;;;10.23;9.23;;;;;;;;;;5046405;28;20040;-67
2023/04/17 13:26:05;;;;;;;11.63;10.45;;;;;;;;;;5046390;28;20096;-68
2023/04/17 13:28:30;;;;;;;11.02;9.98;;;;;;;;;;5046035;28;20045;-68
2023/04/17 13:30:56;;;;;;;10.50;9.50;;;;;;;;;;5042035;28;20032;-67
2023/04/17 13:33:21;;;;;;;11.25;10.23;;;;;;;;;;5045359;28;20043;-67
2023/04/17 13:35:49;;;;;;;11.15;10.07;;;;;;;;;;5045890;28;20045;-67
2023/04/17 13:38:15;;;;;;;10.35;9.35;;;;;;;;;;5048352;28;20052;-67
2023/04/17 13:40:40;;;;;;;11.02;9.93;;;;;;;;;;5050013;28;20041;-67
2023/04/17 13:43:06;;;;;;;10.48;9.43;;;;;;;;;;5033718;28;20052;-67
2023/04/17 13:45:31;;;;;;;10.55;9.55;;;;;;;;;;5046955;28;20029;-67
2023/04/17 13:47:58;;;;;;;11.30;10.15;;;;;;;;;;5048310;28;20037;-67
2023/04/17 13:50:24;;;;;;;11.00;9.90;;;;;;;;;;5049325;28;20587;-67
2023/04/17 13:52:50;;;;;;;11.88;9.90;;;;;;;;;;5048667;28;20037;-67
2023/04/17 13:55:16;;;;;;;9.10;8.20;;;;;;;;;;5045449;28;20048;-69
2023/04/17 13:57:41;;;;;;;7.90;7.20;;;;;;;;;;5047884;28;20037;-67
2023/04/17 14:00:09;;;;;;;6.60;6.10;;;;;;;;;;5055076;28;20036;-67
2023/04/17 14:02:34;;;;;;;8.18;7.47;;;;;;;;;;5045278;28;20082;-67
2023/04/17 14:05:00;;;;;;;8.52;7.72;;;;;;;;;;5050818;28;20036;-67
2023/04/17 14:07:26;;;;;;;26.60;18.92;;;;;;;;;;5051151;28;20098;-67
2023/04/17 14:09:51;;;;;;;9.18;8.45;;;;;;;;;;5050802;28;20033;-66
2023/04/17 14:12:19;;;;;;;9.32;8.43;;;;;;;;;;5050030;28;20426;-66
2023/04/17 14:14:45;;;;;;;10.40;9.30;;;;;;;;;;5027703;28;20064;-67
2023/04/17 14:17:11;;;;;;;11.82;10.13;;;;;;;;;;5047432;28;20048;-66
2023/04/17 14:19:37;;;;;;;23.92;14.80;;;;;;;;;;5049979;28;20039;-67